createdAt,value
2022-08-26T00:02:37.390Z,4.00
2022-08-26T00:10:10.318Z,3.90
2022-08-26T00:14:10.959Z,3.88
2022-08-26T00:22:09.231Z,3.50
2022-08-26T00:25:37.487Z,4.18
2022-08-26T00:28:55.708Z,4.40
2022-08-26T00:32:09.977Z,4.10
2022-08-26T00:42:29.358Z,4.00
2022-08-26T00:45:58.444Z,4.03
2022-08-26T00:49:12.198Z,4.07
2022-08-26T00:53:03.591Z,4.10
2022-08-26T01:01:22.972Z,3.92
2022-08-26T01:12:31.042Z,3.90
2022-08-26T01:20:58.671Z,3.70
2022-08-26T01:33:30.278Z,3.63
2022-08-26T01:51:06.920Z,3.83
2022-08-26T01:59:31.062Z,3.45
2022-08-26T02:16:31.708Z,3.63
2022-08-26T02:20:30.122Z,3.97
2022-08-26T02:25:11.130Z,3.78
2022-08-26T02:38:11.097Z,3.83
2022-08-26T02:41:11.001Z,3.78
2022-08-26T02:43:48.285Z,4.22
2022-08-26T02:46:27.891Z,4.40
2022-08-26T02:49:06.138Z,4.40
2022-08-26T02:51:44.030Z,4.72
2022-08-26T02:54:20.726Z,4.25
2022-08-26T02:56:53.108Z,4.30
2022-08-26T02:59:24.379Z,4.32
2022-08-26T03:02:00.458Z,4.30
2022-08-26T03:04:37.287Z,5.07
2022-08-26T03:07:17.906Z,4.30
2022-08-26T03:09:52.045Z,4.78
2022-08-26T03:12:28.889Z,4.47
2022-08-26T03:15:16.420Z,4.00
2022-08-26T03:17:50.515Z,4.47
2022-08-26T03:20:33.660Z,4.18
2022-08-26T03:23:09.924Z,4.15
2022-08-26T03:25:57.270Z,4.35
2022-08-26T03:28:30.220Z,4.15
2022-08-26T03:31:05.574Z,4.60
2022-08-26T03:33:36.707Z,4.15
2022-08-26T03:36:16.230Z,4.22
2022-08-26T03:38:53.639Z,3.92
2022-08-26T03:41:56.902Z,4.00
2022-08-26T03:44:33.072Z,4.22
2022-08-26T03:47:02.787Z,4.70
2022-08-26T03:49:40.457Z,4.50
2022-08-26T03:52:17.719Z,4.10
2022-08-26T03:54:46.539Z,4.18
2022-08-26T03:57:20.711Z,4.10
2022-08-26T03:59:54.074Z,4.32
2022-08-26T04:02:45.271Z,4.20
2022-08-26T04:05:23.180Z,4.22
2022-08-26T04:08:06.174Z,4.28
2022-08-26T04:10:40.934Z,4.25
2022-08-26T04:13:25.049Z,4.07
2022-08-26T04:15:57.108Z,4.30
2022-08-26T04:21:10.809Z,3.78
2022-08-26T04:23:48.977Z,4.38
2022-08-26T04:26:20.302Z,3.95
2022-08-26T04:28:54.790Z,4.40
2022-08-26T04:31:30.911Z,4.57
2022-08-26T04:34:06.987Z,4.60
2022-08-26T04:36:42.224Z,4.35
2022-08-26T04:39:22.448Z,4.30
2022-08-26T04:41:55.810Z,4.55
2022-08-26T04:44:30.701Z,3.97
2022-08-26T04:47:42.659Z,4.32
2022-08-26T04:54:22.243Z,3.75
2022-08-26T04:56:56.549Z,4.15
2022-08-26T04:59:49.547Z,4.45
2022-08-26T05:02:21.496Z,4.10
2022-08-26T05:05:07.947Z,4.00
2022-08-26T05:07:39.868Z,4.05
2022-08-26T05:10:19.871Z,3.67
2022-08-26T05:13:11.232Z,4.40
2022-08-26T05:16:09.396Z,4.32
2022-08-26T05:19:05.294Z,4.25
2022-08-26T05:21:50.891Z,4.05
2022-08-26T05:24:33.236Z,3.85
2022-08-26T05:27:30.136Z,4.60
2022-08-26T05:30:26.284Z,3.78
2022-08-26T05:33:02.849Z,4.03
2022-08-26T05:39:29.407Z,3.90
2022-08-26T05:42:02.986Z,4.22
2022-08-26T05:45:10.476Z,4.20
2022-08-26T05:48:03.925Z,4.18
2022-08-26T05:51:26.939Z,4.25
2022-08-26T05:54:21.723Z,4.30
2022-08-26T05:58:21.326Z,4.00
2022-08-26T06:01:32.152Z,3.97
2022-08-26T06:05:10.302Z,3.85
2022-08-26T06:11:40.427Z,4.28
2022-08-26T06:21:40.129Z,3.92
2022-08-26T06:25:21.652Z,3.67
2022-08-26T06:28:54.706Z,3.95
2022-08-26T06:31:56.555Z,3.95
2022-08-26T06:34:58.772Z,3.80
2022-08-26T06:37:53.397Z,4.10
2022-08-26T06:40:47.933Z,4.32
2022-08-26T06:43:38.334Z,4.57
2022-08-26T06:49:44.453Z,4.13
2022-08-26T06:52:48.381Z,4.28
2022-08-26T06:55:32.620Z,4.38
2022-08-26T06:59:01.490Z,4.53
2022-08-26T07:01:51.804Z,4.63
2022-08-26T07:05:17.899Z,4.55
2022-08-26T07:08:48.895Z,4.47
2022-08-26T07:11:51.674Z,4.60
2022-08-26T07:14:47.499Z,4.30
2022-08-26T07:17:34.356Z,4.60
2022-08-26T07:21:27.310Z,4.55
2022-08-26T07:25:39.011Z,4.40
2022-08-26T07:28:37.392Z,4.65
2022-08-26T07:35:10.217Z,4.00
2022-08-26T07:38:10.991Z,4.35
2022-08-26T07:40:57.739Z,4.13
2022-08-26T07:44:18.199Z,4.40
2022-08-26T07:47:25.157Z,3.88
2022-08-26T07:50:04.315Z,4.63
2022-08-26T07:52:38.465Z,4.28
2022-08-26T07:55:16.330Z,4.55
2022-08-26T07:57:49.286Z,4.93
2022-08-26T08:00:28.457Z,4.70
2022-08-26T08:03:06.369Z,5.22
2022-08-26T08:05:38.571Z,4.72
2022-08-26T08:08:26.707Z,4.72
2022-08-26T08:11:09.985Z,4.85
2022-08-26T08:13:46.125Z,5.50
2022-08-26T08:16:16.626Z,5.35
2022-08-26T08:18:55.717Z,5.38
2022-08-26T08:21:33.673Z,5.68
2022-08-26T08:24:04.326Z,5.47
2022-08-26T08:26:39.883Z,5.05
2022-08-26T08:29:17.330Z,5.28
2022-08-26T08:31:59.864Z,5.13
2022-08-26T08:34:37.515Z,5.03
2022-08-26T08:37:10.868Z,4.80
2022-08-26T08:39:47.118Z,5.25
2022-08-26T09:01:58.769Z,5.18
2022-08-26T09:05:46.688Z,4.88
2022-08-26T09:10:07.867Z,4.60
2022-08-26T09:13:38.943Z,4.78
2022-08-26T09:17:30.783Z,5.13
2022-08-26T09:20:39.347Z,4.65
2022-08-26T09:24:28.689Z,4.85
2022-08-26T09:28:09.392Z,5.35
2022-08-26T09:35:30.870Z,4.45
2022-08-26T09:38:42.031Z,4.43
2022-08-26T09:46:54.207Z,4.07
2022-08-26T09:57:57.539Z,4.00
2022-08-26T10:01:15.506Z,4.28
2022-08-26T10:04:37.610Z,4.05
2022-08-26T10:07:55.102Z,4.07
2022-08-26T10:11:08.955Z,3.97
2022-08-26T10:21:28.901Z,3.83
2022-08-26T10:24:55.145Z,4.05
2022-08-26T10:32:29.962Z,3.90
2022-08-26T10:35:58.816Z,4.15
2022-08-26T11:01:52.456Z,4.03
2022-08-26T11:09:53.568Z,4.80
2022-08-26T11:13:20.416Z,4.60
2022-08-26T11:16:50.047Z,5.10
2022-08-26T11:20:30.669Z,4.53
2022-08-26T11:28:34.738Z,4.93
2022-08-26T11:40:57.589Z,5.07
2022-08-26T11:44:33.499Z,5.85
2022-08-26T11:47:49.404Z,5.47
2022-08-26T12:05:32.907Z,5.43
2022-08-26T12:09:07.239Z,5.38
2022-08-26T12:11:41.328Z,5.95
2022-08-26T12:14:22.608Z,5.65
2022-08-26T12:16:56.116Z,5.93
2022-08-26T12:23:24.742Z,5.75
2022-08-26T12:26:06.775Z,5.93
2022-08-26T12:28:45.537Z,6.10
2022-08-26T12:31:37.832Z,6.75
2022-08-26T12:34:18.620Z,7.10
2022-08-26T12:37:01.241Z,7.60
2022-08-26T12:39:36.634Z,7.78
2022-08-26T12:42:25.047Z,6.97
2022-08-26T12:45:09.284Z,7.65
2022-08-26T12:47:44.641Z,7.55
2022-08-26T12:50:16.829Z,6.78
2022-08-26T12:53:02.457Z,6.65
2022-08-26T12:55:45.167Z,6.97
2022-08-26T12:58:29.241Z,6.75
2022-08-26T13:01:06.274Z,6.88
2022-08-26T13:03:38.397Z,7.20
2022-08-26T13:06:22.979Z,7.13
2022-08-26T13:09:15.061Z,6.65
2022-08-26T13:11:49.601Z,6.70
2022-08-26T13:16:51.076Z,5.78
2022-08-26T13:19:22.969Z,6.18
2022-08-26T13:22:01.339Z,7.38
2022-08-26T13:24:45.145Z,6.95
2022-08-26T13:27:16.844Z,6.75
2022-08-26T13:29:49.056Z,6.82
2022-08-26T13:32:19.045Z,6.72
2022-08-26T13:34:53.353Z,6.63
2022-08-26T13:37:34.328Z,6.63
2022-08-26T13:40:18.621Z,6.30
2022-08-26T13:42:50.446Z,6.32
2022-08-26T13:45:27.269Z,5.93
2022-08-26T13:48:01.060Z,6.20
2022-08-26T13:50:30.775Z,5.50
2022-08-26T13:53:02.453Z,6.20
2022-08-26T13:55:34.617Z,5.32
2022-08-26T13:58:05.672Z,5.75
2022-08-26T14:00:37.409Z,5.32
2022-08-26T14:03:12.634Z,5.53
2022-08-26T14:06:07.305Z,5.10
2022-08-26T14:08:41.182Z,5.20
2022-08-26T14:11:14.610Z,5.18
2022-08-26T14:13:50.568Z,5.18
2022-08-26T14:16:26.661Z,5.10
2022-08-26T14:19:02.367Z,5.30
2022-08-26T14:21:34.715Z,5.22
2022-08-26T14:24:07.397Z,5.20
2022-08-26T14:26:38.871Z,5.00
2022-08-26T14:29:16.907Z,4.90
2022-08-26T14:31:53.787Z,5.30
2022-08-26T14:34:25.213Z,4.97
2022-08-26T14:37:07.647Z,5.47
2022-08-26T14:39:41.126Z,4.97
2022-08-26T14:42:19.401Z,5.15
2022-08-26T14:44:54.911Z,4.95
2022-08-26T14:47:29.498Z,4.82
2022-08-26T14:50:01.924Z,5.07
2022-08-26T14:53:03.310Z,5.15
2022-08-26T14:55:37.442Z,4.57
2022-08-26T14:58:11.088Z,4.95
2022-08-26T15:01:05.291Z,4.88
2022-08-26T15:03:36.394Z,4.50
2022-08-26T15:06:10.075Z,4.63
2022-08-26T15:08:45.720Z,4.80
2022-08-26T15:13:50.841Z,4.30
2022-08-26T15:16:24.464Z,4.15
2022-08-26T15:18:54.617Z,4.53
2022-08-26T15:21:29.795Z,4.57
2022-08-26T15:24:03.568Z,4.70
2022-08-26T15:26:41.221Z,4.35
2022-08-26T15:29:22.835Z,4.57
2022-08-26T15:31:57.247Z,4.40
2022-08-26T15:34:28.941Z,4.15
2022-08-26T15:36:58.839Z,4.10
2022-08-26T15:39:43.914Z,4.10
2022-08-26T15:42:17.828Z,4.47
2022-08-26T15:44:48.851Z,4.63
2022-08-26T15:47:26.545Z,4.40
2022-08-26T15:50:00.949Z,4.07
2022-08-26T15:52:31.023Z,4.45
2022-08-26T15:55:08.993Z,4.65
2022-08-26T15:57:44.266Z,4.25
2022-08-26T16:00:20.457Z,4.00
2022-08-26T16:02:50.365Z,4.40
2022-08-26T16:05:30.637Z,4.50
2022-08-26T16:08:30.124Z,4.15
2022-08-26T16:11:29.577Z,4.03
2022-08-26T16:14:06.959Z,4.18
2022-08-26T16:16:48.988Z,4.40
2022-08-26T16:19:24.023Z,3.90
2022-08-26T16:22:04.896Z,4.25
2022-08-26T16:24:40.626Z,3.92
2022-08-26T16:27:30.615Z,4.10
2022-08-26T16:30:08.558Z,3.70
2022-08-26T16:32:45.610Z,3.95
2022-08-26T16:35:25.201Z,3.95
2022-08-26T16:38:02.021Z,3.85
2022-08-26T16:40:35.393Z,4.30
2022-08-26T16:47:51.396Z,3.45
2022-08-26T16:55:34.042Z,3.70
2022-08-26T16:58:38.057Z,3.78
2022-08-26T17:02:09.714Z,4.20
2022-08-26T17:05:14.908Z,3.50
2022-08-26T17:12:30.749Z,4.05
2022-08-26T17:15:50.873Z,3.92
2022-08-26T17:24:06.925Z,4.20
2022-08-26T17:31:51.174Z,3.85
2022-08-26T17:35:49.983Z,3.70
2022-08-26T17:38:21.330Z,3.63
2022-08-26T17:48:51.078Z,3.70
2022-08-26T17:51:30.993Z,3.85
2022-08-26T17:54:03.177Z,4.00
2022-08-26T17:56:54.804Z,3.85
2022-08-26T18:04:10.256Z,3.95
2022-08-26T18:06:48.222Z,3.25
2022-08-26T18:09:28.826Z,3.80
2022-08-26T18:12:33.155Z,3.90
2022-08-26T18:15:03.341Z,4.20
2022-08-26T18:17:37.919Z,3.95
2022-08-26T18:20:24.077Z,4.20
2022-08-26T18:23:09.962Z,4.03
2022-08-26T18:29:22.626Z,3.80
2022-08-26T18:32:27.011Z,4.35
2022-08-26T18:35:01.323Z,4.05
2022-08-26T18:37:34.120Z,3.90
2022-08-26T18:41:09.787Z,3.83
2022-08-26T18:43:45.093Z,3.88
2022-08-26T18:47:18.233Z,4.25
2022-08-26T18:49:57.629Z,3.60
2022-08-26T18:52:46.846Z,3.53
2022-08-26T18:55:23.079Z,3.72
2022-08-26T18:57:54.988Z,4.00
2022-08-26T19:00:34.842Z,4.03
2022-08-26T19:03:18.705Z,3.90
2022-08-26T19:10:21.771Z,3.67
2022-08-26T19:13:00.673Z,3.72
2022-08-26T19:15:55.916Z,4.10
2022-08-26T19:19:50.750Z,3.80
2022-08-26T19:23:31.939Z,3.58
2022-08-26T19:29:45.670Z,3.78
2022-08-26T19:32:31.394Z,3.92
2022-08-26T19:37:37.685Z,3.60
2022-08-26T19:41:06.877Z,3.38
2022-08-26T19:43:46.278Z,4.03
2022-08-26T19:46:27.517Z,4.15
2022-08-26T19:49:24.919Z,3.60
2022-08-26T19:55:50.011Z,3.80
2022-08-26T19:58:23.340Z,3.90
2022-08-26T20:00:54.484Z,3.83
2022-08-26T20:17:33.505Z,3.47
2022-08-26T20:24:01.880Z,3.53
2022-08-26T20:30:33.275Z,3.72
2022-08-26T20:33:03.479Z,3.13
2022-08-26T20:35:35.649Z,3.67
2022-08-26T20:38:14.641Z,3.38
2022-08-26T20:44:39.274Z,3.53
2022-08-26T20:47:21.425Z,3.45
2022-08-26T20:49:52.596Z,3.65
2022-08-26T20:53:35.414Z,3.35
2022-08-26T20:59:53.168Z,3.50
2022-08-26T21:03:32.167Z,3.42
2022-08-26T21:06:02.508Z,3.70
2022-08-26T21:14:03.533Z,3.70
2022-08-26T21:20:43.008Z,3.47
2022-08-26T21:24:18.558Z,3.58
2022-08-26T21:26:58.718Z,3.40
2022-08-26T21:29:31.912Z,3.60
2022-08-26T21:32:03.591Z,3.60
2022-08-26T21:34:39.099Z,3.50
2022-08-26T21:37:26.823Z,3.72
2022-08-26T21:40:24.732Z,3.40
2022-08-26T21:43:42.899Z,3.40
2022-08-26T21:46:54.396Z,3.45
2022-08-26T21:50:49.368Z,3.55
2022-08-26T21:53:30.367Z,3.20
2022-08-26T21:56:38.178Z,3.47
2022-08-26T22:02:30.419Z,3.47
2022-08-26T22:12:05.137Z,3.30
2022-08-26T22:32:25.112Z,3.25
2022-08-26T22:41:39.152Z,3.25
2022-08-26T22:58:51.067Z,3.15
2022-08-26T23:13:22.853Z,3.28
2022-08-26T23:24:58.435Z,3.05
2022-08-26T23:27:44.467Z,3.38
2022-08-26T23:48:53.962Z,3.25
2022-08-26T23:51:48.290Z,3.22
